Hub


Voltar

 INFORMAÇÕES METEOROLÓGICAS

METAR FOR WAJJ


ADDS - METARS form results

(2338 UTC 19 August 2019)
Data provider http://aviationweather.gov/metar/data/
 
METAR text: WAJJ 192330Z 21003KT 9999 SCT012 28/24 Q1011 NOSIG
Conditions at: WAJJ (JAYAPURA/SENTANI, ID) observed 2330 UTC 19 August 2019
Temperature: 28.0°C (82°F)
Dewpoint: 24.0°C (75°F) [RH = 79%]
Pressure (altimeter): 29.85 inches Hg (1011.0 mb)
Winds: from the SSW (210 degrees) at 3 MPH (3 knots; 1.5 m/s)
Visibility: 6 or more miles (10+ km)
Ceiling: at least 12,000 feet AGL
Clouds: scattered clouds at 1200 feet AGL
Weather: no significant weather observed at this time

METAR text: WAJJ 192300Z 21002KT 9999 FEW012 27/23 Q1010 NOSIG
Conditions at: WAJJ (JAYAPURA/SENTANI, ID) observed 2300 UTC 19 August 2019
Temperature: 27.0°C (81°F)
Dewpoint: 23.0°C (73°F) [RH = 79%]
Pressure (altimeter): 29.82 inches Hg (1010.0 mb)
Winds: from the SSW (210 degrees) at 2 MPH (2 knots; 1.0 m/s)
Visibility: 6 or more miles (10+ km)
Ceiling: at least 12,000 feet AGL
Clouds: few clouds at 1200 feet AGL
Weather: no significant weather observed at this time


 MAPA DO AEROPORTO


 INFORMAÇÕES DA PISTA

Pista 12 Tamanho da pista 7161 ft Largura da pista 148 ft
Elevação da pista 292 ft Ranhura da pista 0 ft Proa da pista 127
Pista 30 Tamanho da pista 7161 ft Largura da pista 148 ft
Elevação da pista 289 ft Ranhura da pista 0 ft Proa da pista 307

 FREQUÊNCIAS DO AEROPORTO

Tipo APP Nome JAYAPURA A Frequência 119.1 MHZ
Tipo ATIS Nome ATIS Frequência 128.8 MHZ
Tipo INFO Nome JAYAPURA I Frequência 295.6 MHZ
Tipo TWR Nome TWR Frequência 118.1 MHZ

 AUXÍLIOS DE NAVEGAÇÃO PRÓXIMOS AO AEROPORTO

Tipo VOR-DME Nome Jayapura Frequência 116200 KHZ
Tipo NDB Nome Jayapura Frequência 395 KHZ